sensor_id;sensor_type;location;lat;lon;timestamp;P1;durP1;ratioP1;P2;durP2;ratioP2
18929;SDS011;43305;52.186;5.598;2022-08-01T00:00:30;14.27;;;7.85;;
18929;SDS011;43305;52.186;5.598;2022-08-01T00:02:57;14.75;;;8.25;;
18929;SDS011;43305;52.186;5.598;2022-08-01T00:05:24;14.55;;;7.95;;
18929;SDS011;43305;52.186;5.598;2022-08-01T00:07:51;16.40;;;8.77;;
18929;SDS011;43305;52.186;5.598;2022-08-01T00:10:19;16.27;;;8.90;;
18929;SDS011;43305;52.186;5.598;2022-08-01T00:12:46;15.32;;;8.43;;
18929;SDS011;43305;52.186;5.598;2022-08-01T00:15:14;16.38;;;9.23;;
18929;SDS011;43305;52.186;5.598;2022-08-01T00:17:42;20.10;;;11.10;;
18929;SDS011;43305;52.186;5.598;2022-08-01T00:20:10;17.27;;;10.13;;
18929;SDS011;43305;52.186;5.598;2022-08-01T00:22:38;22.23;;;11.55;;
18929;SDS011;43305;52.186;5.598;2022-08-01T00:25:05;23.10;;;12.88;;
18929;SDS011;43305;52.186;5.598;2022-08-01T00:27:34;24.42;;;12.60;;
18929;SDS011;43305;52.186;5.598;2022-08-01T00:30:01;25.10;;;13.40;;
18929;SDS011;43305;52.186;5.598;2022-08-01T00:32:31;27.40;;;14.10;;
18929;SDS011;43305;52.186;5.598;2022-08-01T00:34:58;27.27;;;13.52;;
18929;SDS011;43305;52.186;5.598;2022-08-01T00:37:25;30.15;;;13.07;;
18929;SDS011;43305;52.186;5.598;2022-08-01T00:39:52;26.17;;;13.05;;
18929;SDS011;43305;52.186;5.598;2022-08-01T00:42:19;28.60;;;13.98;;
18929;SDS011;43305;52.186;5.598;2022-08-01T00:44:55;25.92;;;12.98;;
18929;SDS011;43305;52.186;5.598;2022-08-01T00:47:23;27.17;;;13.02;;
18929;SDS011;43305;52.186;5.598;2022-08-01T00:49:50;25.75;;;13.52;;
18929;SDS011;43305;52.186;5.598;2022-08-01T00:52:17;26.05;;;13.23;;
18929;SDS011;43305;52.186;5.598;2022-08-01T00:54:44;25.38;;;13.30;;
18929;SDS011;43305;52.186;5.598;2022-08-01T00:57:11;27.35;;;12.90;;
18929;SDS011;43305;52.186;5.598;2022-08-01T00:59:38;31.10;;;14.38;;
18929;SDS011;43305;52.186;5.598;2022-08-01T01:02:10;26.20;;;13.63;;
18929;SDS011;43305;52.186;5.598;2022-08-01T01:04:38;30.05;;;13.45;;
18929;SDS011;43305;52.186;5.598;2022-08-01T01:07:06;27.67;;;13.30;;
18929;SDS011;43305;52.186;5.598;2022-08-01T01:09:44;28.50;;;13.57;;
18929;SDS011;43305;52.186;5.598;2022-08-01T01:12:21;26.45;;;13.07;;
18929;SDS011;43305;52.186;5.598;2022-08-01T01:14:55;29.48;;;12.90;;
18929;SDS011;43305;52.186;5.598;2022-08-01T01:17:35;28.70;;;13.77;;
18929;SDS011;43305;52.186;5.598;2022-08-01T01:20:05;26.98;;;13.73;;
18929;SDS011;43305;52.186;5.598;2022-08-01T01:22:42;27.48;;;13.32;;
18929;SDS011;43305;52.186;5.598;2022-08-01T01:25:21;31.20;;;14.15;;
18929;SDS011;43305;52.186;5.598;2022-08-01T01:28:02;30.23;;;13.23;;
18929;SDS011;43305;52.186;5.598;2022-08-01T01:30:37;23.42;;;11.95;;
18929;SDS011;43305;52.186;5.598;2022-08-01T01:33:07;25.35;;;10.77;;
18929;SDS011;43305;52.186;5.598;2022-08-01T01:35:38;18.83;;;9.27;;
18929;SDS011;43305;52.186;5.598;2022-08-01T01:38:10;18.67;;;8.88;;
18929;SDS011;43305;52.186;5.598;2022-08-01T01:40:43;13.98;;;8.18;;
18929;SDS011;43305;52.186;5.598;2022-08-01T01:43:14;16.80;;;8.73;;
18929;SDS011;43305;52.186;5.598;2022-08-01T01:45:44;17.40;;;8.60;;
18929;SDS011;43305;52.186;5.598;2022-08-01T01:48:14;16.33;;;8.60;;
18929;SDS011;43305;52.186;5.598;2022-08-01T01:50:45;13.93;;;8.27;;
18929;SDS011;43305;52.186;5.598;2022-08-01T01:53:13;17.13;;;8.82;;
18929;SDS011;43305;52.186;5.598;2022-08-01T01:55:44;17.88;;;8.68;;
18929;SDS011;43305;52.186;5.598;2022-08-01T01:58:14;16.35;;;9.10;;
18929;SDS011;43305;52.186;5.598;2022-08-01T02:00:48;16.55;;;8.52;;
18929;SDS011;43305;52.186;5.598;2022-08-01T02:03:17;14.40;;;7.95;;
18929;SDS011;43305;52.186;5.598;2022-08-01T02:05:46;16.70;;;8.73;;
18929;SDS011;43305;52.186;5.598;2022-08-01T02:08:14;18.15;;;8.40;;
18929;SDS011;43305;52.186;5.598;2022-08-01T02:10:44;13.98;;;7.63;;
18929;SDS011;43305;52.186;5.598;2022-08-01T02:13:33;13.27;;;6.70;;
18929;SDS011;43305;52.186;5.598;2022-08-01T02:16:04;12.80;;;6.47;;
18929;SDS011;43305;52.186;5.598;2022-08-01T02:18:32;9.52;;;5.32;;
18929;SDS011;43305;52.186;5.598;2022-08-01T02:20:59;9.48;;;5.15;;
18929;SDS011;43305;52.186;5.598;2022-08-01T02:23:30;11.13;;;5.53;;
18929;SDS011;43305;52.186;5.598;2022-08-01T02:26:00;9.50;;;5.53;;
18929;SDS011;43305;52.186;5.598;2022-08-01T02:28:35;10.50;;;5.40;;
18929;SDS011;43305;52.186;5.598;2022-08-01T02:31:06;11.68;;;5.72;;
18929;SDS011;43305;52.186;5.598;2022-08-01T02:33:41;11.60;;;5.50;;
18929;SDS011;43305;52.186;5.598;2022-08-01T02:36:11;8.23;;;5.30;;
18929;SDS011;43305;52.186;5.598;2022-08-01T02:38:42;10.40;;;5.22;;
18929;SDS011;43305;52.186;5.598;2022-08-01T02:41:11;9.75;;;5.32;;
18929;SDS011;43305;52.186;5.598;2022-08-01T02:43:43;11.90;;;5.10;;
18929;SDS011;43305;52.186;5.598;2022-08-01T02:46:17;7.93;;;4.88;;
18929;SDS011;43305;52.186;5.598;2022-08-01T02:48:50;9.50;;;5.10;;
18929;SDS011;43305;52.186;5.598;2022-08-01T02:51:19;9.13;;;4.93;;
18929;SDS011;43305;52.186;5.598;2022-08-01T02:53:49;8.57;;;4.75;;
18929;SDS011;43305;52.186;5.598;2022-08-01T02:56:17;9.13;;;5.18;;
18929;SDS011;43305;52.186;5.598;2022-08-01T02:58:49;7.63;;;4.47;;
18929;SDS011;43305;52.186;5.598;2022-08-01T03:01:20;9.82;;;5.85;;
18929;SDS011;43305;52.186;5.598;2022-08-01T03:03:47;12.40;;;7.10;;
18929;SDS011;43305;52.186;5.598;2022-08-01T03:06:18;11.77;;;6.38;;
18929;SDS011;43305;52.186;5.598;2022-08-01T03:08:45;15.88;;;8.25;;
18929;SDS011;43305;52.186;5.598;2022-08-01T03:11:15;20.25;;;9.60;;
18929;SDS011;43305;52.186;5.598;2022-08-01T03:13:43;15.57;;;9.32;;
18929;SDS011;43305;52.186;5.598;2022-08-01T04:46:52;6.75;;;4.47;;
18929;SDS011;43305;52.186;5.598;2022-08-01T04:49:21;4.90;;;3.53;;
18929;SDS011;43305;52.186;5.598;2022-08-01T04:51:49;5.22;;;2.95;;
18929;SDS011;43305;52.186;5.598;2022-08-01T04:54:22;5.05;;;2.97;;
18929;SDS011;43305;52.186;5.598;2022-08-01T04:56:49;4.88;;;2.40;;
18929;SDS011;43305;52.186;5.598;2022-08-01T04:59:18;3.85;;;2.70;;
18929;SDS011;43305;52.186;5.598;2022-08-01T05:02:00;4.35;;;2.60;;
18929;SDS011;43305;52.186;5.598;2022-08-01T05:04:27;5.22;;;2.20;;
18929;SDS011;43305;52.186;5.598;2022-08-01T05:06:54;3.22;;;2.22;;
18929;SDS011;43305;52.186;5.598;2022-08-01T05:09:21;3.47;;;2.20;;
18929;SDS011;43305;52.186;5.598;2022-08-01T05:11:48;3.17;;;2.35;;
18929;SDS011;43305;52.186;5.598;2022-08-01T05:14:15;4.47;;;2.20;;
18929;SDS011;43305;52.186;5.598;2022-08-01T05:16:42;4.07;;;2.15;;
18929;SDS011;43305;52.186;5.598;2022-08-01T05:19:10;4.78;;;2.28;;
18929;SDS011;43305;52.186;5.598;2022-08-01T05:21:37;5.15;;;2.40;;
18929;SDS011;43305;52.186;5.598;2022-08-01T05:24:04;3.28;;;2.30;;
18929;SDS011;43305;52.186;5.598;2022-08-01T05:26:31;6.05;;;2.40;;
18929;SDS011;43305;52.186;5.598;2022-08-01T05:28:58;4.80;;;2.40;;
18929;SDS011;43305;52.186;5.598;2022-08-01T05:31:25;4.82;;;2.40;;
18929;SDS011;43305;52.186;5.598;2022-08-01T05:33:52;4.10;;;2.22;;
18929;SDS011;43305;52.186;5.598;2022-08-01T05:36:20;4.20;;;2.17;;
18929;SDS011;43305;52.186;5.598;2022-08-01T05:38:47;4.82;;;2.53;;
18929;SDS011;43305;52.186;5.598;2022-08-01T05:41:14;4.97;;;2.78;;
18929;SDS011;43305;52.186;5.598;2022-08-01T05:43:40;5.25;;;2.70;;
18929;SDS011;43305;52.186;5.598;2022-08-01T05:46:08;3.63;;;2.60;;
18929;SDS011;43305;52.186;5.598;2022-08-01T05:48:34;4.25;;;2.72;;
18929;SDS011;43305;52.186;5.598;2022-08-01T05:51:02;3.47;;;2.65;;
18929;SDS011;43305;52.186;5.598;2022-08-01T05:53:31;4.65;;;2.78;;
18929;SDS011;43305;52.186;5.598;2022-08-01T05:55:59;5.22;;;2.63;;
18929;SDS011;43305;52.186;5.598;2022-08-01T05:58:26;5.65;;;3.42;;
18929;SDS011;43305;52.186;5.598;2022-08-01T06:00:53;4.60;;;2.97;;
18929;SDS011;43305;52.186;5.598;2022-08-01T06:03:19;5.65;;;3.08;;
18929;SDS011;43305;52.186;5.598;2022-08-01T06:05:46;6.22;;;3.60;;
18929;SDS011;43305;52.186;5.598;2022-08-01T06:08:13;5.00;;;3.10;;
18929;SDS011;43305;52.186;5.598;2022-08-01T06:10:41;4.97;;;3.20;;
18929;SDS011;43305;52.186;5.598;2022-08-01T06:13:07;6.13;;;3.35;;
18929;SDS011;43305;52.186;5.598;2022-08-01T06:15:34;5.93;;;2.95;;
18929;SDS011;43305;52.186;5.598;2022-08-01T06:18:01;4.82;;;3.40;;
18929;SDS011;43305;52.186;5.598;2022-08-01T06:20:28;4.15;;;2.92;;
18929;SDS011;43305;52.186;5.598;2022-08-01T06:22:55;7.38;;;3.30;;
18929;SDS011;43305;52.186;5.598;2022-08-01T06:25:22;7.13;;;3.55;;
18929;SDS011;43305;52.186;5.598;2022-08-01T06:27:50;7.45;;;2.90;;
18929;SDS011;43305;52.186;5.598;2022-08-01T06:30:17;6.82;;;3.22;;
18929;SDS011;43305;52.186;5.598;2022-08-01T06:32:44;4.15;;;2.92;;
18929;SDS011;43305;52.186;5.598;2022-08-01T06:35:12;8.48;;;2.95;;
18929;SDS011;43305;52.186;5.598;2022-08-01T06:37:39;5.65;;;3.05;;
18929;SDS011;43305;52.186;5.598;2022-08-01T06:40:06;6.97;;;3.08;;
18929;SDS011;43305;52.186;5.598;2022-08-01T06:42:37;4.80;;;2.72;;
18929;SDS011;43305;52.186;5.598;2022-08-01T06:45:08;6.68;;;2.67;;
18929;SDS011;43305;52.186;5.598;2022-08-01T06:47:36;4.40;;;2.72;;
18929;SDS011;43305;52.186;5.598;2022-08-01T06:50:04;5.40;;;2.97;;
18929;SDS011;43305;52.186;5.598;2022-08-01T06:52:31;6.60;;;3.40;;
18929;SDS011;43305;52.186;5.598;2022-08-01T06:54:58;7.60;;;3.13;;
18929;SDS011;43305;52.186;5.598;2022-08-01T06:57:25;7.88;;;3.03;;
18929;SDS011;43305;52.186;5.598;2022-08-01T06:59:53;5.40;;;2.70;;
18929;SDS011;43305;52.186;5.598;2022-08-01T07:02:22;4.30;;;2.78;;
18929;SDS011;43305;52.186;5.598;2022-08-01T07:04:49;5.03;;;2.70;;
18929;SDS011;43305;52.186;5.598;2022-08-01T07:07:16;4.75;;;2.50;;
18929;SDS011;43305;52.186;5.598;2022-08-01T07:09:42;5.43;;;3.00;;
18929;SDS011;43305;52.186;5.598;2022-08-01T07:12:09;8.18;;;2.75;;
18929;SDS011;43305;52.186;5.598;2022-08-01T07:14:37;9.82;;;3.10;;
18929;SDS011;43305;52.186;5.598;2022-08-01T07:17:06;5.53;;;2.95;;
18929;SDS011;43305;52.186;5.598;2022-08-01T07:19:35;7.43;;;3.15;;
18929;SDS011;43305;52.186;5.598;2022-08-01T07:22:02;7.70;;;2.88;;
18929;SDS011;43305;52.186;5.598;2022-08-01T07:24:29;5.97;;;2.75;;
18929;SDS011;43305;52.186;5.598;2022-08-01T07:26:57;5.50;;;2.90;;
18929;SDS011;43305;52.186;5.598;2022-08-01T07:29:24;8.10;;;3.17;;
18929;SDS011;43305;52.186;5.598;2022-08-01T07:31:52;8.05;;;3.20;;
18929;SDS011;43305;52.186;5.598;2022-08-01T07:34:26;7.75;;;2.90;;
18929;SDS011;43305;52.186;5.598;2022-08-01T07:36:55;10.05;;;3.22;;
18929;SDS011;43305;52.186;5.598;2022-08-01T07:39:21;9.15;;;3.03;;
18929;SDS011;43305;52.186;5.598;2022-08-01T07:41:48;11.60;;;3.75;;
18929;SDS011;43305;52.186;5.598;2022-08-01T07:44:15;12.48;;;3.08;;
18929;SDS011;43305;52.186;5.598;2022-08-01T07:46:42;10.77;;;3.50;;
18929;SDS011;43305;52.186;5.598;2022-08-01T07:49:11;6.95;;;3.28;;
18929;SDS011;43305;52.186;5.598;2022-08-01T07:51:38;11.02;;;3.53;;
18929;SDS011;43305;52.186;5.598;2022-08-01T07:54:06;12.88;;;3.38;;
18929;SDS011;43305;52.186;5.598;2022-08-01T07:56:33;13.95;;;3.72;;
18929;SDS011;43305;52.186;5.598;2022-08-01T07:58:59;11.75;;;3.83;;
18929;SDS011;43305;52.186;5.598;2022-08-01T08:01:26;17.63;;;4.15;;
18929;SDS011;43305;52.186;5.598;2022-08-01T08:03:53;15.40;;;4.03;;
18929;SDS011;43305;52.186;5.598;2022-08-01T08:06:20;14.77;;;4.25;;
18929;SDS011;43305;52.186;5.598;2022-08-01T08:08:47;18.95;;;3.83;;
18929;SDS011;43305;52.186;5.598;2022-08-01T08:11:19;12.60;;;3.80;;
18929;SDS011;43305;52.186;5.598;2022-08-01T08:13:47;20.50;;;4.15;;
18929;SDS011;43305;52.186;5.598;2022-08-01T08:16:13;16.40;;;3.80;;
18929;SDS011;43305;52.186;5.598;2022-08-01T08:18:40;14.10;;;3.78;;
18929;SDS011;43305;52.186;5.598;2022-08-01T08:21:07;12.02;;;3.42;;
18929;SDS011;43305;52.186;5.598;2022-08-01T08:23:34;22.92;;;3.45;;
18929;SDS011;43305;52.186;5.598;2022-08-01T08:26:16;13.05;;;1.83;;
18929;SDS011;43305;52.186;5.598;2022-08-01T08:28:43;10.68;;;2.50;;
18929;SDS011;43305;52.186;5.598;2022-08-01T08:31:10;5.55;;;2.38;;
18929;SDS011;43305;52.186;5.598;2022-08-01T08:33:37;17.90;;;2.92;;
18929;SDS011;43305;52.186;5.598;2022-08-01T08:36:07;14.95;;;2.53;;
18929;SDS011;43305;52.186;5.598;2022-08-01T08:38:36;11.40;;;2.75;;
18929;SDS011;43305;52.186;5.598;2022-08-01T08:41:03;8.73;;;1.90;;
18929;SDS011;43305;52.186;5.598;2022-08-01T08:43:32;8.23;;;2.00;;
18929;SDS011;43305;52.186;5.598;2022-08-01T08:46:01;5.78;;;1.17;;
18929;SDS011;43305;52.186;5.598;2022-08-01T08:48:29;7.65;;;1.48;;
18929;SDS011;43305;52.186;5.598;2022-08-01T08:50:57;10.30;;;1.70;;
18929;SDS011;43305;52.186;5.598;2022-08-01T08:53:29;9.55;;;1.77;;
18929;SDS011;43305;52.186;5.598;2022-08-01T08:55:57;8.52;;;2.05;;
18929;SDS011;43305;52.186;5.598;2022-08-01T08:58:25;3.75;;;0.90;;
18929;SDS011;43305;52.186;5.598;2022-08-01T09:01:05;3.58;;;0.93;;
18929;SDS011;43305;52.186;5.598;2022-08-01T09:03:33;6.00;;;1.77;;
18929;SDS011;43305;52.186;5.598;2022-08-01T09:06:01;4.75;;;1.08;;
18929;SDS011;43305;52.186;5.598;2022-08-01T09:08:29;4.15;;;1.10;;
18929;SDS011;43305;52.186;5.598;2022-08-01T09:10:57;4.00;;;1.50;;
18929;SDS011;43305;52.186;5.598;2022-08-01T09:13:25;13.20;;;1.10;;
18929;SDS011;43305;52.186;5.598;2022-08-01T09:15:55;4.15;;;0.90;;
18929;SDS011;43305;52.186;5.598;2022-08-01T09:18:27;3.63;;;0.85;;
18929;SDS011;43305;52.186;5.598;2022-08-01T09:21:08;4.88;;;0.88;;
18929;SDS011;43305;52.186;5.598;2022-08-01T09:23:37;1.95;;;0.80;;
18929;SDS011;43305;52.186;5.598;2022-08-01T09:26:07;7.43;;;0.90;;
18929;SDS011;43305;52.186;5.598;2022-08-01T09:28:35;3.30;;;1.45;;
18929;SDS011;43305;52.186;5.598;2022-08-01T09:31:08;3.40;;;1.42;;
18929;SDS011;43305;52.186;5.598;2022-08-01T09:33:47;7.43;;;1.75;;
18929;SDS011;43305;52.186;5.598;2022-08-01T09:36:17;2.70;;;1.02;;
18929;SDS011;43305;52.186;5.598;2022-08-01T09:38:46;4.07;;;0.90;;
18929;SDS011;43305;52.186;5.598;2022-08-01T09:41:13;2.90;;;0.93;;
18929;SDS011;43305;52.186;5.598;2022-08-01T09:43:47;3.40;;;0.65;;
18929;SDS011;43305;52.186;5.598;2022-08-01T09:46:17;3.85;;;0.90;;
18929;SDS011;43305;52.186;5.598;2022-08-01T09:48:54;1.77;;;0.75;;
18929;SDS011;43305;52.186;5.598;2022-08-01T09:54:06;1.10;;;0.60;;
18929;SDS011;43305;52.186;5.598;2022-08-01T09:56:35;2.25;;;0.73;;
18929;SDS011;43305;52.186;5.598;2022-08-01T09:59:04;2.33;;;0.80;;
18929;SDS011;43305;52.186;5.598;2022-08-01T10:04:19;2.03;;;0.60;;
18929;SDS011;43305;52.186;5.598;2022-08-01T10:06:48;0.82;;;0.57;;
18929;SDS011;43305;52.186;5.598;2022-08-01T10:09:27;3.97;;;0.65;;
18929;SDS011;43305;52.186;5.598;2022-08-01T10:11:55;3.10;;;0.60;;
18929;SDS011;43305;52.186;5.598;2022-08-01T10:14:25;2.33;;;0.75;;
18929;SDS011;43305;52.186;5.598;2022-08-01T10:16:56;0.52;;;0.30;;
18929;SDS011;43305;52.186;5.598;2022-08-01T10:19:27;0.93;;;0.60;;
18929;SDS011;43305;52.186;5.598;2022-08-01T10:21:57;1.13;;;0.50;;
18929;SDS011;43305;52.186;5.598;2022-08-01T10:24:28;4.60;;;1.25;;
18929;SDS011;43305;52.186;5.598;2022-08-01T10:26:57;6.68;;;1.23;;
18929;SDS011;43305;52.186;5.598;2022-08-01T10:29:28;4.97;;;1.00;;
18929;SDS011;43305;52.186;5.598;2022-08-01T10:32:05;3.53;;;0.95;;
18929;SDS011;43305;52.186;5.598;2022-08-01T10:34:37;8.45;;;2.05;;
18929;SDS011;43305;52.186;5.598;2022-08-01T10:37:04;5.70;;;1.08;;
18929;SDS011;43305;52.186;5.598;2022-08-01T10:39:36;2.80;;;1.00;;
18929;SDS011;43305;52.186;5.598;2022-08-01T10:42:06;2.50;;;0.93;;
18929;SDS011;43305;52.186;5.598;2022-08-01T10:44:38;4.20;;;1.00;;
18929;SDS011;43305;52.186;5.598;2022-08-01T10:47:11;5.55;;;1.38;;
18929;SDS011;43305;52.186;5.598;2022-08-01T10:49:41;6.43;;;1.20;;
18929;SDS011;43305;52.186;5.598;2022-08-01T10:52:14;7.78;;;1.02;;
18929;SDS011;43305;52.186;5.598;2022-08-01T10:54:45;6.13;;;1.15;;
18929;SDS011;43305;52.186;5.598;2022-08-01T10:57:12;4.93;;;1.20;;
18929;SDS011;43305;52.186;5.598;2022-08-01T10:59:49;2.90;;;1.23;;
18929;SDS011;43305;52.186;5.598;2022-08-01T11:02:27;2.67;;;1.00;;
18929;SDS011;43305;52.186;5.598;2022-08-01T11:05:00;3.78;;;1.05;;
18929;SDS011;43305;52.186;5.598;2022-08-01T11:07:38;5.20;;;0.80;;
18929;SDS011;43305;52.186;5.598;2022-08-01T11:10:15;3.97;;;0.70;;
18929;SDS011;43305;52.186;5.598;2022-08-01T11:12:49;1.42;;;0.80;;
18929;SDS011;43305;52.186;5.598;2022-08-01T11:15:16;6.55;;;1.10;;
18929;SDS011;43305;52.186;5.598;2022-08-01T11:17:52;3.72;;;0.70;;
18929;SDS011;43305;52.186;5.598;2022-08-01T11:20:25;1.67;;;0.70;;
18929;SDS011;43305;52.186;5.598;2022-08-01T11:28:39;4.20;;;1.38;;
18929;SDS011;43305;52.186;5.598;2022-08-01T11:33:53;4.65;;;1.17;;
18929;SDS011;43305;52.186;5.598;2022-08-01T11:36:21;0.93;;;0.63;;
18929;SDS011;43305;52.186;5.598;2022-08-01T11:38:49;2.92;;;0.90;;
18929;SDS011;43305;52.186;5.598;2022-08-01T11:41:37;3.47;;;0.90;;
18929;SDS011;43305;52.186;5.598;2022-08-01T11:44:04;4.45;;;1.05;;
18929;SDS011;43305;52.186;5.598;2022-08-01T11:52:13;3.88;;;1.10;;
18929;SDS011;43305;52.186;5.598;2022-08-01T11:54:42;8.32;;;1.02;;
18929;SDS011;43305;52.186;5.598;2022-08-01T11:57:12;5.00;;;1.13;;
18929;SDS011;43305;52.186;5.598;2022-08-01T11:59:41;6.25;;;1.23;;
18929;SDS011;43305;52.186;5.598;2022-08-01T12:02:18;0.70;;;0.63;;
18929;SDS011;43305;52.186;5.598;2022-08-01T12:04:49;5.25;;;0.75;;
18929;SDS011;43305;52.186;5.598;2022-08-01T12:07:18;5.07;;;1.10;;
18929;SDS011;43305;52.186;5.598;2022-08-01T12:09:46;1.52;;;0.80;;
18929;SDS011;43305;52.186;5.598;2022-08-01T12:12:14;1.95;;;0.52;;
18929;SDS011;43305;52.186;5.598;2022-08-01T12:14:43;2.85;;;0.65;;
18929;SDS011;43305;52.186;5.598;2022-08-01T12:17:11;3.13;;;0.80;;
18929;SDS011;43305;52.186;5.598;2022-08-01T12:19:38;3.17;;;0.60;;
18929;SDS011;43305;52.186;5.598;2022-08-01T12:22:10;3.95;;;1.02;;
18929;SDS011;43305;52.186;5.598;2022-08-01T12:24:38;1.00;;;0.68;;
18929;SDS011;43305;52.186;5.598;2022-08-01T12:27:08;2.65;;;0.88;;
18929;SDS011;43305;52.186;5.598;2022-08-01T12:29:37;1.75;;;0.82;;
18929;SDS011;43305;52.186;5.598;2022-08-01T12:32:20;2.90;;;0.85;;
18929;SDS011;43305;52.186;5.598;2022-08-01T12:34:49;0.88;;;0.70;;
18929;SDS011;43305;52.186;5.598;2022-08-01T12:37:21;1.20;;;0.50;;
18929;SDS011;43305;52.186;5.598;2022-08-01T12:39:52;4.10;;;0.90;;
18929;SDS011;43305;52.186;5.598;2022-08-01T12:42:19;3.83;;;0.95;;
18929;SDS011;43305;52.186;5.598;2022-08-01T12:44:47;2.65;;;0.80;;
18929;SDS011;43305;52.186;5.598;2022-08-01T12:47:17;1.52;;;0.70;;
18929;SDS011;43305;52.186;5.598;2022-08-01T12:49:44;2.53;;;0.85;;
18929;SDS011;43305;52.186;5.598;2022-08-01T12:52:12;2.88;;;0.73;;
18929;SDS011;43305;52.186;5.598;2022-08-01T12:57:29;2.67;;;0.80;;
18929;SDS011;43305;52.186;5.598;2022-08-01T13:00:05;2.20;;;0.70;;
18929;SDS011;43305;52.186;5.598;2022-08-01T13:02:33;0.77;;;0.50;;
18929;SDS011;43305;52.186;5.598;2022-08-01T13:05:00;1.38;;;0.60;;
18929;SDS011;43305;52.186;5.598;2022-08-01T13:07:36;0.95;;;0.45;;
18929;SDS011;43305;52.186;5.598;2022-08-01T13:10:07;3.60;;;0.60;;
18929;SDS011;43305;52.186;5.598;2022-08-01T13:12:35;2.50;;;0.52;;
18929;SDS011;43305;52.186;5.598;2022-08-01T13:17:47;2.22;;;0.65;;
18929;SDS011;43305;52.186;5.598;2022-08-01T13:20:22;2.90;;;0.77;;
18929;SDS011;43305;52.186;5.598;2022-08-01T13:22:53;2.45;;;0.80;;
18929;SDS011;43305;52.186;5.598;2022-08-01T13:25:30;0.57;;;0.40;;
18929;SDS011;43305;52.186;5.598;2022-08-01T13:30:49;2.55;;;0.70;;
18929;SDS011;43305;52.186;5.598;2022-08-01T13:33:19;5.72;;;0.70;;
18929;SDS011;43305;52.186;5.598;2022-08-01T13:35:46;4.50;;;0.80;;
18929;SDS011;43305;52.186;5.598;2022-08-01T13:38:15;2.25;;;0.75;;
18929;SDS011;43305;52.186;5.598;2022-08-01T13:40:43;1.30;;;0.60;;
18929;SDS011;43305;52.186;5.598;2022-08-01T13:43:11;2.05;;;0.70;;
18929;SDS011;43305;52.186;5.598;2022-08-01T13:45:39;2.35;;;0.70;;
18929;SDS011;43305;52.186;5.598;2022-08-01T13:48:10;3.80;;;1.15;;
18929;SDS011;43305;52.186;5.598;2022-08-01T13:50:38;5.13;;;1.20;;
18929;SDS011;43305;52.186;5.598;2022-08-01T13:53:04;2.40;;;1.10;;
18929;SDS011;43305;52.186;5.598;2022-08-01T13:55:31;4.10;;;1.08;;
18929;SDS011;43305;52.186;5.598;2022-08-01T13:58:00;3.88;;;0.80;;
18929;SDS011;43305;52.186;5.598;2022-08-01T14:00:27;3.92;;;1.30;;
18929;SDS011;43305;52.186;5.598;2022-08-01T14:02:55;3.47;;;1.13;;
18929;SDS011;43305;52.186;5.598;2022-08-01T14:05:22;3.40;;;0.88;;
18929;SDS011;43305;52.186;5.598;2022-08-01T14:07:49;3.20;;;1.02;;
18929;SDS011;43305;52.186;5.598;2022-08-01T14:10:16;4.35;;;1.20;;
18929;SDS011;43305;52.186;5.598;2022-08-01T14:12:43;2.30;;;0.80;;
18929;SDS011;43305;52.186;5.598;2022-08-01T14:15:11;2.72;;;0.80;;
18929;SDS011;43305;52.186;5.598;2022-08-01T14:17:38;3.67;;;1.00;;
18929;SDS011;43305;52.186;5.598;2022-08-01T14:20:05;1.88;;;0.82;;
18929;SDS011;43305;52.186;5.598;2022-08-01T14:22:32;6.00;;;0.90;;
18929;SDS011;43305;52.186;5.598;2022-08-01T14:24:59;3.90;;;1.00;;
18929;SDS011;43305;52.186;5.598;2022-08-01T14:27:26;5.18;;;1.20;;
18929;SDS011;43305;52.186;5.598;2022-08-01T14:29:55;5.65;;;1.13;;
18929;SDS011;43305;52.186;5.598;2022-08-01T14:32:24;3.45;;;0.90;;
18929;SDS011;43305;52.186;5.598;2022-08-01T14:34:51;2.95;;;0.90;;
18929;SDS011;43305;52.186;5.598;2022-08-01T14:37:18;4.95;;;1.00;;
18929;SDS011;43305;52.186;5.598;2022-08-01T14:39:45;4.38;;;1.02;;
18929;SDS011;43305;52.186;5.598;2022-08-01T14:42:12;3.75;;;1.02;;
18929;SDS011;43305;52.186;5.598;2022-08-01T14:44:42;3.28;;;0.90;;
18929;SDS011;43305;52.186;5.598;2022-08-01T14:47:11;3.63;;;1.15;;
18929;SDS011;43305;52.186;5.598;2022-08-01T14:49:43;3.42;;;1.10;;
18929;SDS011;43305;52.186;5.598;2022-08-01T14:52:10;4.40;;;1.00;;
18929;SDS011;43305;52.186;5.598;2022-08-01T14:54:37;3.80;;;1.10;;
18929;SDS011;43305;52.186;5.598;2022-08-01T14:57:04;3.80;;;0.80;;
18929;SDS011;43305;52.186;5.598;2022-08-01T14:59:31;6.10;;;1.40;;
18929;SDS011;43305;52.186;5.598;2022-08-01T15:01:58;1.98;;;0.70;;
18929;SDS011;43305;52.186;5.598;2022-08-01T15:04:26;5.30;;;1.02;;
18929;SDS011;43305;52.186;5.598;2022-08-01T15:06:54;3.03;;;0.90;;
18929;SDS011;43305;52.186;5.598;2022-08-01T15:09:21;3.67;;;0.85;;
18929;SDS011;43305;52.186;5.598;2022-08-01T15:11:49;4.40;;;1.10;;
18929;SDS011;43305;52.186;5.598;2022-08-01T15:14:15;3.33;;;1.20;;
18929;SDS011;43305;52.186;5.598;2022-08-01T15:16:59;3.53;;;0.73;;
18929;SDS011;43305;52.186;5.598;2022-08-01T15:19:26;4.50;;;1.00;;
18929;SDS011;43305;52.186;5.598;2022-08-01T15:21:54;2.33;;;0.85;;
18929;SDS011;43305;52.186;5.598;2022-08-01T15:24:21;2.47;;;1.00;;
18929;SDS011;43305;52.186;5.598;2022-08-01T15:26:48;1.85;;;0.85;;
18929;SDS011;43305;52.186;5.598;2022-08-01T15:29:14;3.30;;;0.80;;
18929;SDS011;43305;52.186;5.598;2022-08-01T15:31:44;2.72;;;0.60;;
18929;SDS011;43305;52.186;5.598;2022-08-01T15:34:11;3.72;;;0.85;;
18929;SDS011;43305;52.186;5.598;2022-08-01T15:36:37;3.55;;;1.02;;
18929;SDS011;43305;52.186;5.598;2022-08-01T15:39:06;2.25;;;0.70;;
18929;SDS011;43305;52.186;5.598;2022-08-01T15:41:33;5.13;;;0.80;;
18929;SDS011;43305;52.186;5.598;2022-08-01T15:44:00;1.70;;;0.60;;
18929;SDS011;43305;52.186;5.598;2022-08-01T15:46:27;2.38;;;0.80;;
18929;SDS011;43305;52.186;5.598;2022-08-01T15:48:54;2.72;;;0.80;;
18929;SDS011;43305;52.186;5.598;2022-08-01T15:51:21;2.72;;;0.80;;
18929;SDS011;43305;52.186;5.598;2022-08-01T15:53:48;2.75;;;0.80;;
18929;SDS011;43305;52.186;5.598;2022-08-01T15:56:16;4.72;;;0.70;;
18929;SDS011;43305;52.186;5.598;2022-08-01T15:58:43;2.08;;;0.70;;
18929;SDS011;43305;52.186;5.598;2022-08-01T16:01:09;1.77;;;0.70;;
18929;SDS011;43305;52.186;5.598;2022-08-01T16:03:36;3.05;;;0.80;;
18929;SDS011;43305;52.186;5.598;2022-08-01T16:06:03;3.30;;;0.75;;
18929;SDS011;43305;52.186;5.598;2022-08-01T16:08:32;4.78;;;1.00;;
18929;SDS011;43305;52.186;5.598;2022-08-01T16:10:58;4.82;;;1.00;;
18929;SDS011;43305;52.186;5.598;2022-08-01T16:13:26;2.30;;;0.80;;
18929;SDS011;43305;52.186;5.598;2022-08-01T16:15:53;5.72;;;1.00;;
18929;SDS011;43305;52.186;5.598;2022-08-01T16:18:20;2.30;;;0.80;;
18929;SDS011;43305;52.186;5.598;2022-08-01T16:20:47;4.72;;;0.98;;
18929;SDS011;43305;52.186;5.598;2022-08-01T16:23:14;4.43;;;0.80;;
18929;SDS011;43305;52.186;5.598;2022-08-01T16:25:41;3.88;;;0.80;;
18929;SDS011;43305;52.186;5.598;2022-08-01T16:28:09;4.47;;;0.85;;
18929;SDS011;43305;52.186;5.598;2022-08-01T16:30:37;3.78;;;0.85;;
18929;SDS011;43305;52.186;5.598;2022-08-01T16:33:06;3.45;;;0.82;;
18929;SDS011;43305;52.186;5.598;2022-08-01T16:35:32;5.10;;;0.70;;
18929;SDS011;43305;52.186;5.598;2022-08-01T16:37:59;5.72;;;0.73;;
18929;SDS011;43305;52.186;5.598;2022-08-01T16:40:26;1.05;;;0.50;;
18929;SDS011;43305;52.186;5.598;2022-08-01T16:42:53;4.63;;;0.70;;
18929;SDS011;43305;52.186;5.598;2022-08-01T16:45:21;3.45;;;0.63;;
18929;SDS011;43305;52.186;5.598;2022-08-01T16:47:50;3.47;;;0.90;;
18929;SDS011;43305;52.186;5.598;2022-08-01T16:50:17;5.38;;;0.70;;
18929;SDS011;43305;52.186;5.598;2022-08-01T16:52:43;6.53;;;0.70;;